sensor_id;sensor_type;location;lat;lon;timestamp;temperature;humidity
57753;DHT22;43583;53.132;6.574;2022-07-12T00:00:46;16.00;99.90
57753;DHT22;43583;53.132;6.574;2022-07-12T00:03:12;16.00;99.90
57753;DHT22;43583;53.132;6.574;2022-07-12T00:05:37;16.00;99.90
57753;DHT22;43583;53.132;6.574;2022-07-12T00:08:03;16.00;99.90
57753;DHT22;43583;53.132;6.574;2022-07-12T00:10:29;16.00;99.90
57753;DHT22;43583;53.132;6.574;2022-07-12T00:12:55;16.00;99.90
57753;DHT22;43583;53.132;6.574;2022-07-12T00:15:21;16.00;99.90
57753;DHT22;43583;53.132;6.574;2022-07-12T00:17:46;15.90;99.90
57753;DHT22;43583;53.132;6.574;2022-07-12T00:20:12;15.90;99.90
57753;DHT22;43583;53.132;6.574;2022-07-12T00:22:37;15.90;99.90
57753;DHT22;43583;53.132;6.574;2022-07-12T00:25:04;15.90;99.90
57753;DHT22;43583;53.132;6.574;2022-07-12T00:27:30;15.90;99.90
57753;DHT22;43583;53.132;6.574;2022-07-12T00:29:55;15.90;99.90
57753;DHT22;43583;53.132;6.574;2022-07-12T00:32:21;15.90;99.90
57753;DHT22;43583;53.132;6.574;2022-07-12T00:34:46;15.90;99.90
57753;DHT22;43583;53.132;6.574;2022-07-12T00:37:12;15.90;99.90
57753;DHT22;43583;53.132;6.574;2022-07-12T00:39:37;15.90;99.90
57753;DHT22;43583;53.132;6.574;2022-07-12T00:42:03;15.90;99.90
57753;DHT22;43583;53.132;6.574;2022-07-12T00:44:29;15.90;99.90
57753;DHT22;43583;53.132;6.574;2022-07-12T00:46:57;15.90;99.90
57753;DHT22;43583;53.132;6.574;2022-07-12T00:49:23;15.90;99.90
57753;DHT22;43583;53.132;6.574;2022-07-12T00:51:49;15.90;99.90
57753;DHT22;43583;53.132;6.574;2022-07-12T00:54:16;15.90;99.90
57753;DHT22;43583;53.132;6.574;2022-07-12T00:56:43;15.90;99.90
57753;DHT22;43583;53.132;6.574;2022-07-12T00:59:15;15.90;99.90
57753;DHT22;43583;53.132;6.574;2022-07-12T01:01:52;15.90;99.90
57753;DHT22;43583;53.132;6.574;2022-07-12T01:04:21;15.90;99.90
57753;DHT22;43583;53.132;6.574;2022-07-12T01:06:57;15.80;99.90
57753;DHT22;43583;53.132;6.574;2022-07-12T01:09:24;15.80;99.90
57753;DHT22;43583;53.132;6.574;2022-07-12T01:12:04;15.80;99.90
57753;DHT22;43583;53.132;6.574;2022-07-12T01:14:42;15.80;99.90
57753;DHT22;43583;53.132;6.574;2022-07-12T01:17:57;15.70;99.90
57753;DHT22;43583;53.132;6.574;2022-07-12T01:21:07;15.70;99.90
57753;DHT22;43583;53.132;6.574;2022-07-12T01:24:04;15.70;99.90
57753;DHT22;43583;53.132;6.574;2022-07-12T01:26:50;15.70;99.90
57753;DHT22;43583;53.132;6.574;2022-07-12T01:29:58;15.70;99.90
57753;DHT22;43583;53.132;6.574;2022-07-12T01:32:46;15.70;99.90
57753;DHT22;43583;53.132;6.574;2022-07-12T01:36:00;15.60;99.90
57753;DHT22;43583;53.132;6.574;2022-07-12T01:38:33;15.60;99.90
57753;DHT22;43583;53.132;6.574;2022-07-12T01:41:00;15.60;99.90
57753;DHT22;43583;53.132;6.574;2022-07-12T01:43:28;15.60;99.90
57753;DHT22;43583;53.132;6.574;2022-07-12T01:45:57;15.60;99.90
57753;DHT22;43583;53.132;6.574;2022-07-12T01:48:23;15.60;99.90
57753;DHT22;43583;53.132;6.574;2022-07-12T01:50:48;15.60;99.90
57753;DHT22;43583;53.132;6.574;2022-07-12T01:53:15;15.70;99.90
57753;DHT22;43583;53.132;6.574;2022-07-12T01:55:41;15.70;99.90
57753;DHT22;43583;53.132;6.574;2022-07-12T01:58:07;15.70;99.90
57753;DHT22;43583;53.132;6.574;2022-07-12T02:00:33;15.60;99.90
57753;DHT22;43583;53.132;6.574;2022-07-12T02:02:59;15.60;99.90
57753;DHT22;43583;53.132;6.574;2022-07-12T02:05:25;15.60;99.90
57753;DHT22;43583;53.132;6.574;2022-07-12T02:07:51;15.60;99.90
57753;DHT22;43583;53.132;6.574;2022-07-12T02:10:18;15.60;99.90
57753;DHT22;43583;53.132;6.574;2022-07-12T02:12:43;15.60;99.90
57753;DHT22;43583;53.132;6.574;2022-07-12T02:15:09;15.60;99.90
57753;DHT22;43583;53.132;6.574;2022-07-12T02:17:35;15.60;99.90
57753;DHT22;43583;53.132;6.574;2022-07-12T02:20:02;15.60;99.90
57753;DHT22;43583;53.132;6.574;2022-07-12T02:22:28;15.60;99.90
57753;DHT22;43583;53.132;6.574;2022-07-12T02:24:54;15.60;99.90
57753;DHT22;43583;53.132;6.574;2022-07-12T02:27:20;15.60;99.90
57753;DHT22;43583;53.132;6.574;2022-07-12T02:29:45;15.60;99.90
57753;DHT22;43583;53.132;6.574;2022-07-12T02:32:11;15.70;99.90
57753;DHT22;43583;53.132;6.574;2022-07-12T02:34:37;15.60;99.90
57753;DHT22;43583;53.132;6.574;2022-07-12T02:37:03;15.60;99.90
57753;DHT22;43583;53.132;6.574;2022-07-12T02:39:29;15.60;99.90
57753;DHT22;43583;53.132;6.574;2022-07-12T02:41:54;15.60;99.90
57753;DHT22;43583;53.132;6.574;2022-07-12T02:44:20;15.60;99.90
57753;DHT22;43583;53.132;6.574;2022-07-12T02:46:46;15.60;99.90
57753;DHT22;43583;53.132;6.574;2022-07-12T02:49:11;15.60;99.90
57753;DHT22;43583;53.132;6.574;2022-07-12T02:51:37;15.60;99.90
57753;DHT22;43583;53.132;6.574;2022-07-12T02:54:02;15.60;99.90
57753;DHT22;43583;53.132;6.574;2022-07-12T02:56:28;15.50;99.90
57753;DHT22;43583;53.132;6.574;2022-07-12T02:58:54;15.50;99.90
57753;DHT22;43583;53.132;6.574;2022-07-12T03:01:20;15.50;99.90
57753;DHT22;43583;53.132;6.574;2022-07-12T03:03:45;15.50;99.90
57753;DHT22;43583;53.132;6.574;2022-07-12T03:06:11;15.40;99.90
57753;DHT22;43583;53.132;6.574;2022-07-12T03:08:38;15.40;99.90
57753;DHT22;43583;53.132;6.574;2022-07-12T03:11:03;15.40;99.90
57753;DHT22;43583;53.132;6.574;2022-07-12T03:13:29;15.40;99.90
57753;DHT22;43583;53.132;6.574;2022-07-12T03:15:55;15.40;99.90
57753;DHT22;43583;53.132;6.574;2022-07-12T03:18:20;15.40;99.90
57753;DHT22;43583;53.132;6.574;2022-07-12T03:20:46;15.40;99.90
57753;DHT22;43583;53.132;6.574;2022-07-12T03:23:14;15.30;99.90
57753;DHT22;43583;53.132;6.574;2022-07-12T03:25:39;15.30;99.90
57753;DHT22;43583;53.132;6.574;2022-07-12T03:28:05;15.30;99.90
57753;DHT22;43583;53.132;6.574;2022-07-12T03:30:30;15.30;99.90
57753;DHT22;43583;53.132;6.574;2022-07-12T03:32:57;15.30;99.90
57753;DHT22;43583;53.132;6.574;2022-07-12T03:35:23;15.20;99.90
57753;DHT22;43583;53.132;6.574;2022-07-12T03:37:50;15.30;99.90
57753;DHT22;43583;53.132;6.574;2022-07-12T03:40:18;15.30;99.90
57753;DHT22;43583;53.132;6.574;2022-07-12T03:42:44;15.30;99.90
57753;DHT22;43583;53.132;6.574;2022-07-12T03:45:11;15.30;99.90
57753;DHT22;43583;53.132;6.574;2022-07-12T03:47:37;15.30;99.90
57753;DHT22;43583;53.132;6.574;2022-07-12T03:50:04;15.30;99.90
57753;DHT22;43583;53.132;6.574;2022-07-12T03:52:31;15.40;99.90
57753;DHT22;43583;53.132;6.574;2022-07-12T03:54:57;15.40;99.90
57753;DHT22;43583;53.132;6.574;2022-07-12T03:57:23;15.40;99.90
57753;DHT22;43583;53.132;6.574;2022-07-12T03:59:49;15.40;99.90
57753;DHT22;43583;53.132;6.574;2022-07-12T04:02:15;15.40;99.90
57753;DHT22;43583;53.132;6.574;2022-07-12T04:04:41;15.40;99.90
57753;DHT22;43583;53.132;6.574;2022-07-12T04:07:07;15.50;99.90
57753;DHT22;43583;53.132;6.574;2022-07-12T04:09:33;15.50;99.90
57753;DHT22;43583;53.132;6.574;2022-07-12T04:11:58;15.50;99.90
57753;DHT22;43583;53.132;6.574;2022-07-12T04:14:24;15.50;99.90
57753;DHT22;43583;53.132;6.574;2022-07-12T04:16:50;15.50;99.90
57753;DHT22;43583;53.132;6.574;2022-07-12T04:19:15;15.50;99.90
57753;DHT22;43583;53.132;6.574;2022-07-12T04:21:41;15.50;99.90
57753;DHT22;43583;53.132;6.574;2022-07-12T04:24:06;15.40;99.90
57753;DHT22;43583;53.132;6.574;2022-07-12T04:26:32;15.40;99.90
57753;DHT22;43583;53.132;6.574;2022-07-12T04:28:59;15.40;99.90
57753;DHT22;43583;53.132;6.574;2022-07-12T04:31:24;15.40;99.90
57753;DHT22;43583;53.132;6.574;2022-07-12T04:33:51;15.40;99.90
57753;DHT22;43583;53.132;6.574;2022-07-12T04:36:16;15.50;99.90
57753;DHT22;43583;53.132;6.574;2022-07-12T04:38:42;15.50;99.90
57753;DHT22;43583;53.132;6.574;2022-07-12T04:41:08;15.50;99.90
57753;DHT22;43583;53.132;6.574;2022-07-12T04:43:33;15.60;99.90
57753;DHT22;43583;53.132;6.574;2022-07-12T04:46:06;15.50;99.90
57753;DHT22;43583;53.132;6.574;2022-07-12T04:48:32;15.60;99.90
57753;DHT22;43583;53.132;6.574;2022-07-12T04:50:58;15.70;99.90
57753;DHT22;43583;53.132;6.574;2022-07-12T04:53:24;15.70;99.90
57753;DHT22;43583;53.132;6.574;2022-07-12T04:55:49;15.70;99.90
57753;DHT22;43583;53.132;6.574;2022-07-12T04:58:15;15.70;99.90
57753;DHT22;43583;53.132;6.574;2022-07-12T05:00:40;15.80;99.90
57753;DHT22;43583;53.132;6.574;2022-07-12T05:03:06;15.80;99.90
57753;DHT22;43583;53.132;6.574;2022-07-12T05:05:32;15.80;99.90
57753;DHT22;43583;53.132;6.574;2022-07-12T05:07:58;15.80;99.90
57753;DHT22;43583;53.132;6.574;2022-07-12T05:10:23;15.80;99.90
57753;DHT22;43583;53.132;6.574;2022-07-12T05:12:49;15.70;99.90
57753;DHT22;43583;53.132;6.574;2022-07-12T05:15:15;15.70;99.90
57753;DHT22;43583;53.132;6.574;2022-07-12T05:17:40;15.70;99.90
57753;DHT22;43583;53.132;6.574;2022-07-12T05:20:06;15.60;99.90
57753;DHT22;43583;53.132;6.574;2022-07-12T05:22:32;15.70;99.90
57753;DHT22;43583;53.132;6.574;2022-07-12T05:24:57;15.70;99.90
57753;DHT22;43583;53.132;6.574;2022-07-12T05:27:23;16.00;99.90
57753;DHT22;43583;53.132;6.574;2022-07-12T05:29:49;16.40;99.90
57753;DHT22;43583;53.132;6.574;2022-07-12T05:32:14;16.80;99.90
57753;DHT22;43583;53.132;6.574;2022-07-12T05:34:40;17.10;99.90
57753;DHT22;43583;53.132;6.574;2022-07-12T05:37:05;17.30;99.90
57753;DHT22;43583;53.132;6.574;2022-07-12T05:39:31;17.40;99.90
57753;DHT22;43583;53.132;6.574;2022-07-12T05:41:57;17.50;99.90
57753;DHT22;43583;53.132;6.574;2022-07-12T05:44:22;17.80;99.90
57753;DHT22;43583;53.132;6.574;2022-07-12T05:46:48;18.20;99.90
57753;DHT22;43583;53.132;6.574;2022-07-12T05:49:14;18.50;99.90
57753;DHT22;43583;53.132;6.574;2022-07-12T05:51:39;18.90;99.90
57753;DHT22;43583;53.132;6.574;2022-07-12T05:54:24;19.00;99.90
57753;DHT22;43583;53.132;6.574;2022-07-12T05:56:49;19.20;99.90
57753;DHT22;43583;53.132;6.574;2022-07-12T05:59:17;19.20;99.90
57753;DHT22;43583;53.132;6.574;2022-07-12T06:01:42;19.40;99.90
57753;DHT22;43583;53.132;6.574;2022-07-12T06:04:08;19.50;99.90
57753;DHT22;43583;53.132;6.574;2022-07-12T06:06:33;19.60;99.90
57753;DHT22;43583;53.132;6.574;2022-07-12T06:08:59;19.80;99.90
57753;DHT22;43583;53.132;6.574;2022-07-12T06:11:25;19.90;99.90
57753;DHT22;43583;53.132;6.574;2022-07-12T06:13:50;20.10;99.90
57753;DHT22;43583;53.132;6.574;2022-07-12T06:16:16;20.10;99.90
57753;DHT22;43583;53.132;6.574;2022-07-12T06:18:42;20.20;99.90
57753;DHT22;43583;53.132;6.574;2022-07-12T06:21:07;20.30;99.90
57753;DHT22;43583;53.132;6.574;2022-07-12T06:23:33;20.40;99.90
57753;DHT22;43583;53.132;6.574;2022-07-12T06:25:59;20.40;99.90
57753;DHT22;43583;53.132;6.574;2022-07-12T06:28:24;20.60;99.90
57753;DHT22;43583;53.132;6.574;2022-07-12T06:30:50;20.60;99.90
57753;DHT22;43583;53.132;6.574;2022-07-12T06:33:15;20.80;99.90
57753;DHT22;43583;53.132;6.574;2022-07-12T06:35:41;20.90;99.90
57753;DHT22;43583;53.132;6.574;2022-07-12T06:38:06;21.10;99.90
57753;DHT22;43583;53.132;6.574;2022-07-12T06:40:32;21.30;99.90
57753;DHT22;43583;53.132;6.574;2022-07-12T06:42:58;21.50;99.90
57753;DHT22;43583;53.132;6.574;2022-07-12T06:45:24;21.80;99.90
57753;DHT22;43583;53.132;6.574;2022-07-12T06:47:51;22.10;99.90
57753;DHT22;43583;53.132;6.574;2022-07-12T06:50:16;22.50;99.90
57753;DHT22;43583;53.132;6.574;2022-07-12T06:52:42;22.80;99.90
57753;DHT22;43583;53.132;6.574;2022-07-12T06:55:08;23.10;99.90
57753;DHT22;43583;53.132;6.574;2022-07-12T06:57:34;23.40;99.90
57753;DHT22;43583;53.132;6.574;2022-07-12T07:00:00;23.90;99.90
57753;DHT22;43583;53.132;6.574;2022-07-12T07:02:26;24.40;99.90
57753;DHT22;43583;53.132;6.574;2022-07-12T07:04:52;24.80;99.90
57753;DHT22;43583;53.132;6.574;2022-07-12T07:07:17;25.10;99.90
57753;DHT22;43583;53.132;6.574;2022-07-12T07:09:43;25.50;99.90
57753;DHT22;43583;53.132;6.574;2022-07-12T07:12:09;25.80;99.90
57753;DHT22;43583;53.132;6.574;2022-07-12T07:14:35;26.30;99.90
57753;DHT22;43583;53.132;6.574;2022-07-12T07:17:00;27.20;99.90
57753;DHT22;43583;53.132;6.574;2022-07-12T07:19:26;28.10;97.70
57753;DHT22;43583;53.132;6.574;2022-07-12T07:21:53;29.10;95.90
57753;DHT22;43583;53.132;6.574;2022-07-12T07:24:20;30.00;91.80
57753;DHT22;43583;53.132;6.574;2022-07-12T07:26:46;30.50;85.70
57753;DHT22;43583;53.132;6.574;2022-07-12T07:29:12;31.00;84.50
57753;DHT22;43583;53.132;6.574;2022-07-12T07:31:56;31.40;78.20
57753;DHT22;43583;53.132;6.574;2022-07-12T07:34:22;31.90;75.60
57753;DHT22;43583;53.132;6.574;2022-07-12T07:36:49;32.40;73.20
57753;DHT22;43583;53.132;6.574;2022-07-12T07:39:15;32.70;70.70
57753;DHT22;43583;53.132;6.574;2022-07-12T07:41:40;32.90;68.20
57753;DHT22;43583;53.132;6.574;2022-07-12T07:44:06;32.90;65.80
57753;DHT22;43583;53.132;6.574;2022-07-12T07:46:32;32.90;66.00
57753;DHT22;43583;53.132;6.574;2022-07-12T07:48:57;32.90;65.30
57753;DHT22;43583;53.132;6.574;2022-07-12T07:51:23;33.00;66.00
57753;DHT22;43583;53.132;6.574;2022-07-12T07:53:48;33.00;65.50
57753;DHT22;43583;53.132;6.574;2022-07-12T07:56:14;33.20;64.30
57753;DHT22;43583;53.132;6.574;2022-07-12T07:58:39;33.30;64.80
57753;DHT22;43583;53.132;6.574;2022-07-12T08:01:05;33.30;63.50
57753;DHT22;43583;53.132;6.574;2022-07-12T08:03:31;33.30;62.90
57753;DHT22;43583;53.132;6.574;2022-07-12T08:05:56;33.30;63.90
57753;DHT22;43583;53.132;6.574;2022-07-12T08:08:24;33.30;64.20
57753;DHT22;43583;53.132;6.574;2022-07-12T08:10:50;33.40;63.10
57753;DHT22;43583;53.132;6.574;2022-07-12T08:13:16;33.60;63.20
57753;DHT22;43583;53.132;6.574;2022-07-12T08:15:42;33.60;63.10
57753;DHT22;43583;53.132;6.574;2022-07-12T08:18:08;33.50;61.90
57753;DHT22;43583;53.132;6.574;2022-07-12T08:20:33;33.40;62.50
57753;DHT22;43583;53.132;6.574;2022-07-12T08:22:59;33.30;62.90
57753;DHT22;43583;53.132;6.574;2022-07-12T08:25:25;33.00;63.80
57753;DHT22;43583;53.132;6.574;2022-07-12T08:27:50;32.80;63.80
57753;DHT22;43583;53.132;6.574;2022-07-12T08:30:16;32.40;64.00
57753;DHT22;43583;53.132;6.574;2022-07-12T08:32:45;31.90;64.70
57753;DHT22;43583;53.132;6.574;2022-07-12T08:35:11;31.50;65.20
57753;DHT22;43583;53.132;6.574;2022-07-12T08:37:37;31.20;67.50
57753;DHT22;43583;53.132;6.574;2022-07-12T08:40:03;30.90;67.80
57753;DHT22;43583;53.132;6.574;2022-07-12T08:42:30;30.90;68.70
57753;DHT22;43583;53.132;6.574;2022-07-12T08:44:57;30.70;68.60
57753;DHT22;43583;53.132;6.574;2022-07-12T08:47:23;30.60;69.70
57753;DHT22;43583;53.132;6.574;2022-07-12T08:50:11;30.30;70.10
57753;DHT22;43583;53.132;6.574;2022-07-12T08:52:56;30.10;71.20
57753;DHT22;43583;53.132;6.574;2022-07-12T08:57:56;30.30;73.10
57753;DHT22;43583;53.132;6.574;2022-07-12T09:00:24;30.50;73.20
57753;DHT22;43583;53.132;6.574;2022-07-12T09:05:19;31.00;71.10
57753;DHT22;43583;53.132;6.574;2022-07-12T09:07:45;31.30;70.70
57753;DHT22;43583;53.132;6.574;2022-07-12T09:10:12;31.60;70.10
57753;DHT22;43583;53.132;6.574;2022-07-12T09:12:39;31.80;68.00
57753;DHT22;43583;53.132;6.574;2022-07-12T09:15:18;31.90;68.20
57753;DHT22;43583;53.132;6.574;2022-07-12T09:18:05;31.80;68.50
57753;DHT22;43583;53.132;6.574;2022-07-12T09:20:38;31.70;70.30
57753;DHT22;43583;53.132;6.574;2022-07-12T09:23:10;31.50;68.70
57753;DHT22;43583;53.132;6.574;2022-07-12T09:25:44;31.20;70.10
57753;DHT22;43583;53.132;6.574;2022-07-12T09:28:10;31.30;71.10
57753;DHT22;43583;53.132;6.574;2022-07-12T09:30:37;31.20;70.00
57753;DHT22;43583;53.132;6.574;2022-07-12T09:33:11;30.90;70.80
57753;DHT22;43583;53.132;6.574;2022-07-12T09:38:53;30.00;72.70
57753;DHT22;43583;53.132;6.574;2022-07-12T09:41:22;29.50;73.30
57753;DHT22;43583;53.132;6.574;2022-07-12T09:43:50;29.10;76.90
57753;DHT22;43583;53.132;6.574;2022-07-12T09:46:16;28.80;77.50
57753;DHT22;43583;53.132;6.574;2022-07-12T09:48:43;28.70;78.20
57753;DHT22;43583;53.132;6.574;2022-07-12T09:51:11;28.80;77.20
57753;DHT22;43583;53.132;6.574;2022-07-12T09:53:42;29.00;81.50
57753;DHT22;43583;53.132;6.574;2022-07-12T09:56:12;29.30;80.00
57753;DHT22;43583;53.132;6.574;2022-07-12T09:58:53;29.60;80.00
57753;DHT22;43583;53.132;6.574;2022-07-12T10:01:19;29.90;77.00
57753;DHT22;43583;53.132;6.574;2022-07-12T10:03:45;30.20;79.40
57753;DHT22;43583;53.132;6.574;2022-07-12T10:06:13;30.50;77.20
57753;DHT22;43583;53.132;6.574;2022-07-12T10:08:40;30.50;75.40
57753;DHT22;43583;53.132;6.574;2022-07-12T10:11:06;30.50;76.00
57753;DHT22;43583;53.132;6.574;2022-07-12T10:13:33;30.60;77.70
57753;DHT22;43583;53.132;6.574;2022-07-12T10:16:02;30.70;76.30
57753;DHT22;43583;53.132;6.574;2022-07-12T10:18:29;30.80;75.20
57753;DHT22;43583;53.132;6.574;2022-07-12T10:20:55;30.90;74.50
57753;DHT22;43583;53.132;6.574;2022-07-12T10:23:28;30.80;72.20
57753;DHT22;43583;53.132;6.574;2022-07-12T10:25:55;30.90;71.60
57753;DHT22;43583;53.132;6.574;2022-07-12T10:28:21;30.80;72.00
57753;DHT22;43583;53.132;6.574;2022-07-12T10:30:48;30.70;73.90
57753;DHT22;43583;53.132;6.574;2022-07-12T10:33:15;30.70;73.70
57753;DHT22;43583;53.132;6.574;2022-07-12T10:36:01;30.80;74.40
57753;DHT22;43583;53.132;6.574;2022-07-12T10:38:27;30.90;73.10
57753;DHT22;43583;53.132;6.574;2022-07-12T10:40:53;30.80;74.30
57753;DHT22;43583;53.132;6.574;2022-07-12T10:43:24;30.80;71.70
57753;DHT22;43583;53.132;6.574;2022-07-12T10:46:18;30.70;70.80
57753;DHT22;43583;53.132;6.574;2022-07-12T10:48:47;30.60;73.10
57753;DHT22;43583;53.132;6.574;2022-07-12T10:51:17;30.60;71.80
57753;DHT22;43583;53.132;6.574;2022-07-12T10:53:46;30.60;73.10
57753;DHT22;43583;53.132;6.574;2022-07-12T10:56:19;30.60;73.30
57753;DHT22;43583;53.132;6.574;2022-07-12T10:58:48;30.50;74.10
57753;DHT22;43583;53.132;6.574;2022-07-12T11:01:15;30.50;73.30
57753;DHT22;43583;53.132;6.574;2022-07-12T11:03:47;30.50;75.20
57753;DHT22;43583;53.132;6.574;2022-07-12T11:06:22;30.40;72.50
57753;DHT22;43583;53.132;6.574;2022-07-12T11:08:56;30.50;74.00
57753;DHT22;43583;53.132;6.574;2022-07-12T11:11:24;30.40;73.70
57753;DHT22;43583;53.132;6.574;2022-07-12T11:13:50;30.20;73.50
57753;DHT22;43583;53.132;6.574;2022-07-12T11:16:16;29.90;74.60
57753;DHT22;43583;53.132;6.574;2022-07-12T11:18:45;29.70;76.10
57753;DHT22;43583;53.132;6.574;2022-07-12T11:21:11;29.50;75.80
57753;DHT22;43583;53.132;6.574;2022-07-12T11:23:38;29.50;75.70
57753;DHT22;43583;53.132;6.574;2022-07-12T11:26:04;29.40;75.00
57753;DHT22;43583;53.132;6.574;2022-07-12T11:28:31;29.30;77.00
57753;DHT22;43583;53.132;6.574;2022-07-12T11:33:37;29.40;78.50
57753;DHT22;43583;53.132;6.574;2022-07-12T11:36:04;29.50;78.20
57753;DHT22;43583;53.132;6.574;2022-07-12T11:38:30;29.40;76.70
57753;DHT22;43583;53.132;6.574;2022-07-12T11:41:00;29.50;78.60
57753;DHT22;43583;53.132;6.574;2022-07-12T11:43:27;29.70;78.30
57753;DHT22;43583;53.132;6.574;2022-07-12T11:45:53;29.90;78.00
57753;DHT22;43583;53.132;6.574;2022-07-12T11:48:20;30.00;77.40
57753;DHT22;43583;53.132;6.574;2022-07-12T11:50:46;30.20;76.90
57753;DHT22;43583;53.132;6.574;2022-07-12T11:53:26;30.30;77.00
57753;DHT22;43583;53.132;6.574;2022-07-12T11:55:53;30.40;76.80
57753;DHT22;43583;53.132;6.574;2022-07-12T11:58:20;30.60;77.40
57753;DHT22;43583;53.132;6.574;2022-07-12T12:00:47;30.60;76.10
57753;DHT22;43583;53.132;6.574;2022-07-12T12:03:14;30.60;74.80
57753;DHT22;43583;53.132;6.574;2022-07-12T12:05:40;30.60;73.40
57753;DHT22;43583;53.132;6.574;2022-07-12T12:08:07;30.60;73.30
57753;DHT22;43583;53.132;6.574;2022-07-12T12:10:33;30.60;74.70
57753;DHT22;43583;53.132;6.574;2022-07-12T12:13:00;30.60;74.50
57753;DHT22;43583;53.132;6.574;2022-07-12T12:15:31;30.60;75.10
57753;DHT22;43583;53.132;6.574;2022-07-12T12:18:01;30.70;73.90
57753;DHT22;43583;53.132;6.574;2022-07-12T12:20:32;30.70;72.40
57753;DHT22;43583;53.132;6.574;2022-07-12T12:23:00;30.80;72.90
57753;DHT22;43583;53.132;6.574;2022-07-12T12:25:28;30.70;71.30
57753;DHT22;43583;53.132;6.574;2022-07-12T12:30:20;30.50;71.60
57753;DHT22;43583;53.132;6.574;2022-07-12T12:32:55;30.40;70.40
57753;DHT22;43583;53.132;6.574;2022-07-12T12:35:33;30.20;70.90
57753;DHT22;43583;53.132;6.574;2022-07-12T12:38:10;30.10;71.00
57753;DHT22;43583;53.132;6.574;2022-07-12T12:40:35;30.00;70.30
57753;DHT22;43583;53.132;6.574;2022-07-12T12:43:09;29.90;69.80
57753;DHT22;43583;53.132;6.574;2022-07-12T12:45:35;29.90;70.50
57753;DHT22;43583;53.132;6.574;2022-07-12T12:48:18;29.90;70.80
57753;DHT22;43583;53.132;6.574;2022-07-12T12:50:46;29.90;69.10
57753;DHT22;43583;53.132;6.574;2022-07-12T12:53:20;29.80;69.40
57753;DHT22;43583;53.132;6.574;2022-07-12T12:55:48;29.80;68.30
57753;DHT22;43583;53.132;6.574;2022-07-12T12:58:15;29.80;69.30
57753;DHT22;43583;53.132;6.574;2022-07-12T13:00:42;29.80;70.00
57753;DHT22;43583;53.132;6.574;2022-07-12T13:03:09;29.80;71.20
57753;DHT22;43583;53.132;6.574;2022-07-12T13:05:35;29.60;71.60
57753;DHT22;43583;53.132;6.574;2022-07-12T13:08:03;29.50;69.30
57753;DHT22;43583;53.132;6.574;2022-07-12T13:10:30;29.50;70.30
57753;DHT22;43583;53.132;6.574;2022-07-12T13:12:56;29.60;69.50
57753;DHT22;43583;53.132;6.574;2022-07-12T13:15:22;29.70;70.90
57753;DHT22;43583;53.132;6.574;2022-07-12T13:17:48;29.80;71.50
57753;DHT22;43583;53.132;6.574;2022-07-12T13:20:14;29.80;70.00
57753;DHT22;43583;53.132;6.574;2022-07-12T13:22:40;29.80;69.40
57753;DHT22;43583;53.132;6.574;2022-07-12T13:25:08;29.60;68.80
57753;DHT22;43583;53.132;6.574;2022-07-12T13:27:34;29.50;67.20
57753;DHT22;43583;53.132;6.574;2022-07-12T13:30:00;29.30;67.50
57753;DHT22;43583;53.132;6.574;2022-07-12T13:32:25;29.20;68.90
57753;DHT22;43583;53.132;6.574;2022-07-12T13:34:51;29.10;68.50
57753;DHT22;43583;53.132;6.574;2022-07-12T13:37:17;29.00;69.50
57753;DHT22;43583;53.132;6.574;2022-07-12T13:39:43;29.00;71.20
57753;DHT22;43583;53.132;6.574;2022-07-12T13:42:51;28.90;69.60
57753;DHT22;43583;53.132;6.574;2022-07-12T13:45:21;28.80;69.20
57753;DHT22;43583;53.132;6.574;2022-07-12T13:47:48;28.80;68.40
57753;DHT22;43583;53.132;6.574;2022-07-12T13:50:16;28.70;65.70
57753;DHT22;43583;53.132;6.574;2022-07-12T13:52:43;28.60;66.00
57753;DHT22;43583;53.132;6.574;2022-07-12T13:55:11;28.50;67.60
57753;DHT22;43583;53.132;6.574;2022-07-12T13:57:37;28.50;67.70
57753;DHT22;43583;53.132;6.574;2022-07-12T14:00:05;28.50;68.60
57753;DHT22;43583;53.132;6.574;2022-07-12T14:02:34;28.50;69.80
57753;DHT22;43583;53.132;6.574;2022-07-12T14:04:59;28.50;69.70
57753;DHT22;43583;53.132;6.574;2022-07-12T14:07:25;28.60;71.00
57753;DHT22;43583;53.132;6.574;2022-07-12T14:09:50;28.60;70.80
57753;DHT22;43583;53.132;6.574;2022-07-12T14:12:16;28.70;72.60
57753;DHT22;43583;53.132;6.574;2022-07-12T14:14:41;28.80;74.00
57753;DHT22;43583;53.132;6.574;2022-07-12T14:17:26;28.90;72.40
57753;DHT22;43583;53.132;6.574;2022-07-12T14:19:52;28.90;72.00
57753;DHT22;43583;53.132;6.574;2022-07-12T14:22:18;28.90;72.30
57753;DHT22;43583;53.132;6.574;2022-07-12T14:24:43;28.90;73.40
57753;DHT22;43583;53.132;6.574;2022-07-12T14:27:09;28.80;73.90
57753;DHT22;43583;53.132;6.574;2022-07-12T14:29:35;28.70;75.50
57753;DHT22;43583;53.132;6.574;2022-07-12T14:32:00;28.50;74.70
57753;DHT22;43583;53.132;6.574;2022-07-12T14:34:26;28.40;74.80
57753;DHT22;43583;53.132;6.574;2022-07-12T14:36:52;28.40;77.20
57753;DHT22;43583;53.132;6.574;2022-07-12T14:39:17;28.40;75.30
57753;DHT22;43583;53.132;6.574;2022-07-12T14:41:43;28.30;75.00
57753;DHT22;43583;53.132;6.574;2022-07-12T14:44:08;28.20;74.60
57753;DHT22;43583;53.132;6.574;2022-07-12T14:46:34;28.20;73.70
57753;DHT22;43583;53.132;6.574;2022-07-12T14:49:00;28.20;72.70
57753;DHT22;43583;53.132;6.574;2022-07-12T14:51:25;28.20;74.30
57753;DHT22;43583;53.132;6.574;2022-07-12T14:53:51;28.30;74.90
57753;DHT22;43583;53.132;6.574;2022-07-12T14:56:18;28.40;74.00
57753;DHT22;43583;53.132;6.574;2022-07-12T14:58:44;28.30;72.80
57753;DHT22;43583;53.132;6.574;2022-07-12T15:01:10;28.30;73.50
57753;DHT22;43583;53.132;6.574;2022-07-12T15:03:35;28.40;74.30
57753;DHT22;43583;53.132;6.574;2022-07-12T15:06:01;28.30;74.20
57753;DHT22;43583;53.132;6.574;2022-07-12T15:08:26;28.20;73.20
57753;DHT22;43583;53.132;6.574;2022-07-12T15:10:52;28.10;74.10
57753;DHT22;43583;53.132;6.574;2022-07-12T15:13:18;28.00;74.80
57753;DHT22;43583;53.132;6.574;2022-07-12T15:15:43;27.90;74.70
57753;DHT22;43583;53.132;6.574;2022-07-12T15:18:09;27.80;73.90
57753;DHT22;43583;53.132;6.574;2022-07-12T15:20:35;27.80;74.60
57753;DHT22;43583;53.132;6.574;2022-07-12T15:23:01;27.60;74.90
57753;DHT22;43583;53.132;6.574;2022-07-12T15:25:28;27.60;76.10
57753;DHT22;43583;53.132;6.574;2022-07-12T15:27:54;27.50;76.50
57753;DHT22;43583;53.132;6.574;2022-07-12T15:30:20;27.30;75.00
57753;DHT22;43583;53.132;6.574;2022-07-12T15:32:46;27.20;76.00
57753;DHT22;43583;53.132;6.574;2022-07-12T15:35:11;27.10;75.90
57753;DHT22;43583;53.132;6.574;2022-07-12T15:37:37;27.00;75.30
57753;DHT22;43583;53.132;6.574;2022-07-12T15:40:03;26.80;75.60
57753;DHT22;43583;53.132;6.574;2022-07-12T15:42:29;26.80;75.20
57753;DHT22;43583;53.132;6.574;2022-07-12T15:44:55;26.60;75.00
57753;DHT22;43583;53.132;6.574;2022-07-12T15:47:20;26.50;76.80